sensor_id;sensor_type;location;lat;lon;timestamp;temperature;humidity
35894;DHT22;21994;48.204;16.516;2022-12-01T00:00:32;2.70;99.90
35894;DHT22;21994;48.204;16.516;2022-12-01T00:03:06;2.60;99.90
35894;DHT22;21994;48.204;16.516;2022-12-01T00:05:52;2.60;99.90
35894;DHT22;21994;48.204;16.516;2022-12-01T00:12:49;2.30;99.90
35894;DHT22;21994;48.204;16.516;2022-12-01T00:15:27;2.20;99.90
35894;DHT22;21994;48.204;16.516;2022-12-01T00:18:21;2.10;99.90
35894;DHT22;21994;48.204;16.516;2022-12-01T00:20:49;2.00;99.90
35894;DHT22;21994;48.204;16.516;2022-12-01T00:23:23;2.10;99.90
35894;DHT22;21994;48.204;16.516;2022-12-01T00:26:30;2.10;99.90
35894;DHT22;21994;48.204;16.516;2022-12-01T00:29:47;2.10;99.90
35894;DHT22;21994;48.204;16.516;2022-12-01T00:32:46;2.10;99.90
35894;DHT22;21994;48.204;16.516;2022-12-01T00:35:47;2.00;99.90
35894;DHT22;21994;48.204;16.516;2022-12-01T00:38:34;1.90;99.90
35894;DHT22;21994;48.204;16.516;2022-12-01T00:41:44;1.90;99.90
35894;DHT22;21994;48.204;16.516;2022-12-01T00:44:50;1.80;99.90
35894;DHT22;21994;48.204;16.516;2022-12-01T00:51:25;2.00;99.90
35894;DHT22;21994;48.204;16.516;2022-12-01T00:54:16;2.10;99.90
35894;DHT22;21994;48.204;16.516;2022-12-01T00:56:42;2.10;99.90
35894;DHT22;21994;48.204;16.516;2022-12-01T00:59:11;2.10;99.90
35894;DHT22;21994;48.204;16.516;2022-12-01T01:02:15;2.20;99.90
35894;DHT22;21994;48.204;16.516;2022-12-01T01:04:50;2.20;99.90
35894;DHT22;21994;48.204;16.516;2022-12-01T01:07:33;2.40;99.90
35894;DHT22;21994;48.204;16.516;2022-12-01T01:10:18;2.40;99.90
35894;DHT22;21994;48.204;16.516;2022-12-01T01:18:38;2.30;99.90
35894;DHT22;21994;48.204;16.516;2022-12-01T01:21:48;2.20;99.90
35894;DHT22;21994;48.204;16.516;2022-12-01T01:24:42;2.30;99.90
35894;DHT22;21994;48.204;16.516;2022-12-01T01:27:47;2.40;99.90
35894;DHT22;21994;48.204;16.516;2022-12-01T01:30:32;2.20;99.90
35894;DHT22;21994;48.204;16.516;2022-12-01T01:33:05;2.40;99.90
35894;DHT22;21994;48.204;16.516;2022-12-01T01:35:49;2.40;99.90
35894;DHT22;21994;48.204;16.516;2022-12-01T01:38:41;2.30;99.90
35894;DHT22;21994;48.204;16.516;2022-12-01T01:41:07;2.30;99.90
35894;DHT22;21994;48.204;16.516;2022-12-01T01:46:42;2.20;99.90
35894;DHT22;21994;48.204;16.516;2022-12-01T01:49:11;2.20;99.90
35894;DHT22;21994;48.204;16.516;2022-12-01T01:52:00;2.40;99.90
35894;DHT22;21994;48.204;16.516;2022-12-01T01:54:53;2.40;99.90
35894;DHT22;21994;48.204;16.516;2022-12-01T01:57:24;2.40;99.90
35894;DHT22;21994;48.204;16.516;2022-12-01T02:00:06;2.30;99.90
35894;DHT22;21994;48.204;16.516;2022-12-01T02:02:46;2.30;99.90
35894;DHT22;21994;48.204;16.516;2022-12-01T02:05:18;2.30;99.90
35894;DHT22;21994;48.204;16.516;2022-12-01T02:07:59;2.20;99.90
35894;DHT22;21994;48.204;16.516;2022-12-01T02:33:23;2.30;99.90
35894;DHT22;21994;48.204;16.516;2022-12-01T02:39:35;2.10;99.90
35894;DHT22;21994;48.204;16.516;2022-12-01T02:42:38;2.20;99.90
35894;DHT22;21994;48.204;16.516;2022-12-01T02:45:39;2.30;99.90
35894;DHT22;21994;48.204;16.516;2022-12-01T02:48:15;2.30;99.90
35894;DHT22;21994;48.204;16.516;2022-12-01T02:50:55;2.10;99.90
35894;DHT22;21994;48.204;16.516;2022-12-01T02:53:34;2.20;99.90
35894;DHT22;21994;48.204;16.516;2022-12-01T02:56:05;2.00;99.90
35894;DHT22;21994;48.204;16.516;2022-12-01T02:58:42;2.10;99.90
35894;DHT22;21994;48.204;16.516;2022-12-01T03:12:53;1.70;99.90
35894;DHT22;21994;48.204;16.516;2022-12-01T03:23:47;1.60;99.90
35894;DHT22;21994;48.204;16.516;2022-12-01T03:26:17;1.60;99.90
35894;DHT22;21994;48.204;16.516;2022-12-01T03:28:54;1.50;99.90
35894;DHT22;21994;48.204;16.516;2022-12-01T03:31:24;1.40;99.90
35894;DHT22;21994;48.204;16.516;2022-12-01T03:33:57;1.40;99.90
35894;DHT22;21994;48.204;16.516;2022-12-01T03:36:32;1.30;99.90
35894;DHT22;21994;48.204;16.516;2022-12-01T03:39:06;1.30;99.90
35894;DHT22;21994;48.204;16.516;2022-12-01T03:41:36;1.20;99.90
35894;DHT22;21994;48.204;16.516;2022-12-01T03:44:11;1.20;99.90
35894;DHT22;21994;48.204;16.516;2022-12-01T03:46:44;1.20;99.90
35894;DHT22;21994;48.204;16.516;2022-12-01T03:49:13;1.10;99.90
35894;DHT22;21994;48.204;16.516;2022-12-01T03:54:30;1.30;99.90
35894;DHT22;21994;48.204;16.516;2022-12-01T03:57:10;1.30;99.90
35894;DHT22;21994;48.204;16.516;2022-12-01T03:59:39;1.30;99.90
35894;DHT22;21994;48.204;16.516;2022-12-01T04:02:06;1.30;99.90
35894;DHT22;21994;48.204;16.516;2022-12-01T04:04:32;1.30;99.90
35894;DHT22;21994;48.204;16.516;2022-12-01T04:06:57;1.20;99.90
35894;DHT22;21994;48.204;16.516;2022-12-01T04:09:26;1.20;99.90
35894;DHT22;21994;48.204;16.516;2022-12-01T04:11:52;1.10;99.90
35894;DHT22;21994;48.204;16.516;2022-12-01T04:14:36;1.10;99.90
35894;DHT22;21994;48.204;16.516;2022-12-01T04:17:02;1.10;99.90
35894;DHT22;21994;48.204;16.516;2022-12-01T04:19:28;1.10;99.90
35894;DHT22;21994;48.204;16.516;2022-12-01T04:21:53;1.00;99.90
35894;DHT22;21994;48.204;16.516;2022-12-01T04:24:19;1.00;99.90
35894;DHT22;21994;48.204;16.516;2022-12-01T04:26:45;1.00;99.90
35894;DHT22;21994;48.204;16.516;2022-12-01T04:29:11;1.00;99.90
35894;DHT22;21994;48.204;16.516;2022-12-01T04:31:37;0.90;99.90
35894;DHT22;21994;48.204;16.516;2022-12-01T04:34:03;0.90;99.90
35894;DHT22;21994;48.204;16.516;2022-12-01T04:36:30;1.00;99.90
35894;DHT22;21994;48.204;16.516;2022-12-01T04:38:57;1.10;99.90
35894;DHT22;21994;48.204;16.516;2022-12-01T04:41:23;1.10;99.90
35894;DHT22;21994;48.204;16.516;2022-12-01T04:43:51;1.10;99.90
35894;DHT22;21994;48.204;16.516;2022-12-01T04:46:18;1.10;99.90
35894;DHT22;21994;48.204;16.516;2022-12-01T04:48:46;1.30;99.90
35894;DHT22;21994;48.204;16.516;2022-12-01T04:51:11;1.30;99.90
35894;DHT22;21994;48.204;16.516;2022-12-01T04:53:37;1.30;99.90
35894;DHT22;21994;48.204;16.516;2022-12-01T04:56:03;1.30;99.90
35894;DHT22;21994;48.204;16.516;2022-12-01T04:58:32;1.20;99.90
35894;DHT22;21994;48.204;16.516;2022-12-01T05:01:01;1.20;99.90
35894;DHT22;21994;48.204;16.516;2022-12-01T05:03:28;1.10;99.90
35894;DHT22;21994;48.204;16.516;2022-12-01T05:06:01;1.20;99.90
35894;DHT22;21994;48.204;16.516;2022-12-01T05:08:34;1.30;99.90
35894;DHT22;21994;48.204;16.516;2022-12-01T05:11:00;1.30;99.90
35894;DHT22;21994;48.204;16.516;2022-12-01T05:13:26;1.30;99.90
35894;DHT22;21994;48.204;16.516;2022-12-01T05:15:52;1.30;99.90
35894;DHT22;21994;48.204;16.516;2022-12-01T05:18:17;1.30;99.90
35894;DHT22;21994;48.204;16.516;2022-12-01T05:20:43;1.20;99.90
35894;DHT22;21994;48.204;16.516;2022-12-01T05:23:21;1.30;99.90
35894;DHT22;21994;48.204;16.516;2022-12-01T05:25:50;1.50;99.90
35894;DHT22;21994;48.204;16.516;2022-12-01T05:28:17;1.50;99.90
35894;DHT22;21994;48.204;16.516;2022-12-01T05:30:43;1.40;99.90
35894;DHT22;21994;48.204;16.516;2022-12-01T05:33:09;1.40;99.90
35894;DHT22;21994;48.204;16.516;2022-12-01T05:35:34;1.40;99.90
35894;DHT22;21994;48.204;16.516;2022-12-01T05:38:00;1.30;99.90
35894;DHT22;21994;48.204;16.516;2022-12-01T05:40:26;1.30;99.90
35894;DHT22;21994;48.204;16.516;2022-12-01T05:42:52;1.50;99.90
35894;DHT22;21994;48.204;16.516;2022-12-01T05:45:18;1.40;99.90
35894;DHT22;21994;48.204;16.516;2022-12-01T05:47:43;1.30;99.90
35894;DHT22;21994;48.204;16.516;2022-12-01T05:50:09;1.60;99.90
35894;DHT22;21994;48.204;16.516;2022-12-01T05:52:35;1.60;99.90
35894;DHT22;21994;48.204;16.516;2022-12-01T05:55:02;1.60;99.90
35894;DHT22;21994;48.204;16.516;2022-12-01T05:57:29;1.70;99.90
35894;DHT22;21994;48.204;16.516;2022-12-01T05:59:55;1.60;99.90
35894;DHT22;21994;48.204;16.516;2022-12-01T06:02:21;1.60;99.90
35894;DHT22;21994;48.204;16.516;2022-12-01T06:04:47;1.60;99.90
35894;DHT22;21994;48.204;16.516;2022-12-01T06:07:13;1.50;99.90
35894;DHT22;21994;48.204;16.516;2022-12-01T06:09:39;1.60;99.90
35894;DHT22;21994;48.204;16.516;2022-12-01T06:12:04;1.70;99.90
35894;DHT22;21994;48.204;16.516;2022-12-01T06:14:30;1.70;99.90
35894;DHT22;21994;48.204;16.516;2022-12-01T06:16:56;1.90;99.90
35894;DHT22;21994;48.204;16.516;2022-12-01T06:19:22;1.90;99.90
35894;DHT22;21994;48.204;16.516;2022-12-01T06:21:47;1.80;99.90
35894;DHT22;21994;48.204;16.516;2022-12-01T06:24:13;1.90;99.90
35894;DHT22;21994;48.204;16.516;2022-12-01T06:26:39;1.90;99.90
35894;DHT22;21994;48.204;16.516;2022-12-01T06:29:04;2.00;99.90
35894;DHT22;21994;48.204;16.516;2022-12-01T06:31:30;2.00;99.90
35894;DHT22;21994;48.204;16.516;2022-12-01T06:33:56;2.10;99.90
35894;DHT22;21994;48.204;16.516;2022-12-01T06:36:22;2.00;99.90
35894;DHT22;21994;48.204;16.516;2022-12-01T06:38:50;2.00;99.90
35894;DHT22;21994;48.204;16.516;2022-12-01T06:41:16;1.90;99.90
35894;DHT22;21994;48.204;16.516;2022-12-01T06:43:41;2.00;99.90
35894;DHT22;21994;48.204;16.516;2022-12-01T06:46:07;2.00;99.90
35894;DHT22;21994;48.204;16.516;2022-12-01T06:48:33;2.00;99.90
35894;DHT22;21994;48.204;16.516;2022-12-01T06:50:59;2.00;99.90
35894;DHT22;21994;48.204;16.516;2022-12-01T06:53:26;2.00;99.90
35894;DHT22;21994;48.204;16.516;2022-12-01T06:55:53;2.20;99.90
35894;DHT22;21994;48.204;16.516;2022-12-01T06:58:23;2.20;99.90
35894;DHT22;21994;48.204;16.516;2022-12-01T07:00:49;2.10;99.90
35894;DHT22;21994;48.204;16.516;2022-12-01T07:03:15;2.20;99.90
35894;DHT22;21994;48.204;16.516;2022-12-01T07:05:40;2.20;99.90
35894;DHT22;21994;48.204;16.516;2022-12-01T07:08:06;2.40;99.90
35894;DHT22;21994;48.204;16.516;2022-12-01T07:10:32;2.30;99.90
35894;DHT22;21994;48.204;16.516;2022-12-01T07:12:58;2.30;99.90
35894;DHT22;21994;48.204;16.516;2022-12-01T07:15:23;2.20;99.90
35894;DHT22;21994;48.204;16.516;2022-12-01T07:17:58;2.10;99.90
35894;DHT22;21994;48.204;16.516;2022-12-01T07:20:24;2.20;99.90
35894;DHT22;21994;48.204;16.516;2022-12-01T07:22:50;2.30;99.90
35894;DHT22;21994;48.204;16.516;2022-12-01T07:25:16;2.30;99.90
35894;DHT22;21994;48.204;16.516;2022-12-01T07:27:41;2.20;99.90
35894;DHT22;21994;48.204;16.516;2022-12-01T07:30:07;2.20;99.90
35894;DHT22;21994;48.204;16.516;2022-12-01T07:32:33;2.20;99.90
35894;DHT22;21994;48.204;16.516;2022-12-01T07:34:59;2.20;99.90
35894;DHT22;21994;48.204;16.516;2022-12-01T07:37:25;2.40;99.90
35894;DHT22;21994;48.204;16.516;2022-12-01T07:39:50;2.50;99.90
35894;DHT22;21994;48.204;16.516;2022-12-01T07:42:16;2.40;99.90
35894;DHT22;21994;48.204;16.516;2022-12-01T07:44:42;2.40;99.90
35894;DHT22;21994;48.204;16.516;2022-12-01T07:47:07;2.40;99.90
35894;DHT22;21994;48.204;16.516;2022-12-01T07:49:33;2.60;99.90
35894;DHT22;21994;48.204;16.516;2022-12-01T07:51:59;2.60;99.90
35894;DHT22;21994;48.204;16.516;2022-12-01T07:54:24;2.50;99.90
35894;DHT22;21994;48.204;16.516;2022-12-01T07:56:51;2.60;99.90
35894;DHT22;21994;48.204;16.516;2022-12-01T07:59:16;2.70;99.90
35894;DHT22;21994;48.204;16.516;2022-12-01T08:01:42;2.80;99.90
35894;DHT22;21994;48.204;16.516;2022-12-01T08:04:09;2.80;99.90
35894;DHT22;21994;48.204;16.516;2022-12-01T08:06:34;2.90;99.90
35894;DHT22;21994;48.204;16.516;2022-12-01T08:09:00;2.90;99.90
35894;DHT22;21994;48.204;16.516;2022-12-01T08:11:26;3.00;99.90
35894;DHT22;21994;48.204;16.516;2022-12-01T08:13:54;3.00;99.90
35894;DHT22;21994;48.204;16.516;2022-12-01T08:16:20;3.00;99.90
35894;DHT22;21994;48.204;16.516;2022-12-01T08:18:47;3.00;99.90
35894;DHT22;21994;48.204;16.516;2022-12-01T08:21:14;3.20;99.90
35894;DHT22;21994;48.204;16.516;2022-12-01T08:23:41;3.20;99.90
35894;DHT22;21994;48.204;16.516;2022-12-01T08:26:08;3.30;99.90
35894;DHT22;21994;48.204;16.516;2022-12-01T08:28:38;3.30;99.90
35894;DHT22;21994;48.204;16.516;2022-12-01T08:31:08;3.30;99.90
35894;DHT22;21994;48.204;16.516;2022-12-01T08:33:39;3.20;99.90
35894;DHT22;21994;48.204;16.516;2022-12-01T08:36:06;3.20;99.90
35894;DHT22;21994;48.204;16.516;2022-12-01T08:38:32;3.30;99.90
35894;DHT22;21994;48.204;16.516;2022-12-01T08:40:59;3.30;99.90
35894;DHT22;21994;48.204;16.516;2022-12-01T08:43:29;3.50;99.90
35894;DHT22;21994;48.204;16.516;2022-12-01T08:45:58;3.60;99.90
35894;DHT22;21994;48.204;16.516;2022-12-01T08:48:25;3.50;99.90
35894;DHT22;21994;48.204;16.516;2022-12-01T08:51:27;3.70;99.90
35894;DHT22;21994;48.204;16.516;2022-12-01T08:53:47;3.60;99.90
35894;DHT22;21994;48.204;16.516;2022-12-01T08:56:18;3.80;99.90
35894;DHT22;21994;48.204;16.516;2022-12-01T08:58:45;4.00;99.90
35894;DHT22;21994;48.204;16.516;2022-12-01T09:01:12;4.10;99.90
35894;DHT22;21994;48.204;16.516;2022-12-01T09:03:39;4.30;99.90
35894;DHT22;21994;48.204;16.516;2022-12-01T09:06:09;4.80;99.90
35894;DHT22;21994;48.204;16.516;2022-12-01T09:08:36;5.30;99.90
35894;DHT22;21994;48.204;16.516;2022-12-01T09:11:06;5.50;99.90
35894;DHT22;21994;48.204;16.516;2022-12-01T09:13:35;6.00;99.90
35894;DHT22;21994;48.204;16.516;2022-12-01T09:16:03;6.30;99.90
35894;DHT22;21994;48.204;16.516;2022-12-01T09:18:30;6.40;99.90
35894;DHT22;21994;48.204;16.516;2022-12-01T09:20:56;6.30;99.90
35894;DHT22;21994;48.204;16.516;2022-12-01T09:23:23;6.70;99.90
35894;DHT22;21994;48.204;16.516;2022-12-01T09:25:49;6.70;99.90
35894;DHT22;21994;48.204;16.516;2022-12-01T09:28:16;6.80;99.90
35894;DHT22;21994;48.204;16.516;2022-12-01T09:30:42;6.60;99.90
35894;DHT22;21994;48.204;16.516;2022-12-01T09:33:09;6.30;99.90
35894;DHT22;21994;48.204;16.516;2022-12-01T09:35:35;5.90;99.90
35894;DHT22;21994;48.204;16.516;2022-12-01T09:38:00;5.80;99.90
35894;DHT22;21994;48.204;16.516;2022-12-01T09:40:29;5.60;99.90
35894;DHT22;21994;48.204;16.516;2022-12-01T09:42:56;5.50;99.90
35894;DHT22;21994;48.204;16.516;2022-12-01T09:45:24;5.60;99.90
35894;DHT22;21994;48.204;16.516;2022-12-01T09:47:51;5.50;99.90
35894;DHT22;21994;48.204;16.516;2022-12-01T09:50:20;5.80;99.90
35894;DHT22;21994;48.204;16.516;2022-12-01T09:55:16;6.10;99.90
35894;DHT22;21994;48.204;16.516;2022-12-01T09:57:48;6.20;99.90
35894;DHT22;21994;48.204;16.516;2022-12-01T10:00:18;6.30;99.90
35894;DHT22;21994;48.204;16.516;2022-12-01T10:05:35;6.30;99.90
35894;DHT22;21994;48.204;16.516;2022-12-01T10:08:07;6.00;99.90
35894;DHT22;21994;48.204;16.516;2022-12-01T10:10:38;5.60;99.90
35894;DHT22;21994;48.204;16.516;2022-12-01T10:13:17;5.40;99.90
35894;DHT22;21994;48.204;16.516;2022-12-01T10:15:46;5.10;99.90
35894;DHT22;21994;48.204;16.516;2022-12-01T10:24:22;4.60;99.90
35894;DHT22;21994;48.204;16.516;2022-12-01T10:29:40;4.30;99.90
35894;DHT22;21994;48.204;16.516;2022-12-01T10:34:43;4.60;99.90
35894;DHT22;21994;48.204;16.516;2022-12-01T10:37:13;4.60;99.90
35894;DHT22;21994;48.204;16.516;2022-12-01T10:39:44;4.50;99.90
35894;DHT22;21994;48.204;16.516;2022-12-01T10:42:12;4.50;99.90
35894;DHT22;21994;48.204;16.516;2022-12-01T10:45:00;4.70;99.90
35894;DHT22;21994;48.204;16.516;2022-12-01T10:47:28;4.70;99.90
35894;DHT22;21994;48.204;16.516;2022-12-01T10:49:54;4.50;99.90
35894;DHT22;21994;48.204;16.516;2022-12-01T10:52:36;4.50;99.90
35894;DHT22;21994;48.204;16.516;2022-12-01T10:55:25;4.40;99.90
35894;DHT22;21994;48.204;16.516;2022-12-01T10:57:53;4.60;99.90
35894;DHT22;21994;48.204;16.516;2022-12-01T11:00:35;4.70;99.90
35894;DHT22;21994;48.204;16.516;2022-12-01T11:03:02;4.80;99.90
35894;DHT22;21994;48.204;16.516;2022-12-01T11:05:32;4.90;99.90
35894;DHT22;21994;48.204;16.516;2022-12-01T11:08:02;5.20;99.90
35894;DHT22;21994;48.204;16.516;2022-12-01T11:10:29;5.30;99.90
35894;DHT22;21994;48.204;16.516;2022-12-01T11:13:01;5.40;99.90
35894;DHT22;21994;48.204;16.516;2022-12-01T11:15:38;5.80;99.90
35894;DHT22;21994;48.204;16.516;2022-12-01T11:18:19;5.90;99.90
35894;DHT22;21994;48.204;16.516;2022-12-01T11:20:47;5.90;99.90
35894;DHT22;21994;48.204;16.516;2022-12-01T11:23:33;6.00;99.90
35894;DHT22;21994;48.204;16.516;2022-12-01T11:26:01;6.00;99.90
35894;DHT22;21994;48.204;16.516;2022-12-01T11:28:30;6.00;99.90
35894;DHT22;21994;48.204;16.516;2022-12-01T11:30:56;5.80;99.90
35894;DHT22;21994;48.204;16.516;2022-12-01T11:33:23;6.00;99.90
35894;DHT22;21994;48.204;16.516;2022-12-01T11:35:49;6.20;99.90
35894;DHT22;21994;48.204;16.516;2022-12-01T11:38:19;6.30;99.90
35894;DHT22;21994;48.204;16.516;2022-12-01T11:40:48;6.10;99.90
35894;DHT22;21994;48.204;16.516;2022-12-01T11:45:50;6.00;99.90
35894;DHT22;21994;48.204;16.516;2022-12-01T11:48:21;5.90;99.90
35894;DHT22;21994;48.204;16.516;2022-12-01T11:53:31;5.90;99.90
35894;DHT22;21994;48.204;16.516;2022-12-01T11:56:12;5.80;99.90
35894;DHT22;21994;48.204;16.516;2022-12-01T11:58:49;5.90;99.90
35894;DHT22;21994;48.204;16.516;2022-12-01T12:09:22;5.90;99.90
35894;DHT22;21994;48.204;16.516;2022-12-01T12:23:06;5.70;99.90
35894;DHT22;21994;48.204;16.516;2022-12-01T12:34:24;5.60;99.90
35894;DHT22;21994;48.204;16.516;2022-12-01T12:40:01;5.30;99.90
35894;DHT22;21994;48.204;16.516;2022-12-01T12:45:47;5.50;99.90
35894;DHT22;21994;48.204;16.516;2022-12-01T12:53:47;5.40;99.90
35894;DHT22;21994;48.204;16.516;2022-12-01T12:56:17;5.50;99.90
35894;DHT22;21994;48.204;16.516;2022-12-01T12:58:53;5.40;99.90
35894;DHT22;21994;48.204;16.516;2022-12-01T13:01:42;5.30;99.90
35894;DHT22;21994;48.204;16.516;2022-12-01T13:04:20;5.60;99.90
35894;DHT22;21994;48.204;16.516;2022-12-01T13:09:41;5.50;99.90
35894;DHT22;21994;48.204;16.516;2022-12-01T13:14:41;5.60;99.90
35894;DHT22;21994;48.204;16.516;2022-12-01T13:19:48;5.50;99.90
35894;DHT22;21994;48.204;16.516;2022-12-01T13:22:14;5.40;99.90
35894;DHT22;21994;48.204;16.516;2022-12-01T13:24:41;5.30;99.90
35894;DHT22;21994;48.204;16.516;2022-12-01T13:27:12;5.40;99.90
35894;DHT22;21994;48.204;16.516;2022-12-01T13:29:46;5.60;99.90
35894;DHT22;21994;48.204;16.516;2022-12-01T13:32:26;5.50;99.90
35894;DHT22;21994;48.204;16.516;2022-12-01T13:34:58;5.60;99.90
35894;DHT22;21994;48.204;16.516;2022-12-01T13:37:26;5.80;99.90
35894;DHT22;21994;48.204;16.516;2022-12-01T13:39:53;5.70;99.90
35894;DHT22;21994;48.204;16.516;2022-12-01T13:44:53;5.60;99.90
35894;DHT22;21994;48.204;16.516;2022-12-01T13:47:30;5.60;99.90
35894;DHT22;21994;48.204;16.516;2022-12-01T13:49:56;5.50;99.90
35894;DHT22;21994;48.204;16.516;2022-12-01T13:55:52;5.50;99.90
35894;DHT22;21994;48.204;16.516;2022-12-01T14:03:53;5.40;99.90
35894;DHT22;21994;48.204;16.516;2022-12-01T14:09:04;5.30;99.90
35894;DHT22;21994;48.204;16.516;2022-12-01T14:11:32;5.20;99.90
35894;DHT22;21994;48.204;16.516;2022-12-01T14:14:10;5.10;99.90
35894;DHT22;21994;48.204;16.516;2022-12-01T14:16:45;5.20;99.90
35894;DHT22;21994;48.204;16.516;2022-12-01T14:19:26;5.10;99.90
35894;DHT22;21994;48.204;16.516;2022-12-01T14:21:55;4.90;99.90
35894;DHT22;21994;48.204;16.516;2022-12-01T14:24:46;4.90;99.90
35894;DHT22;21994;48.204;16.516;2022-12-01T14:27:08;5.00;99.90
35894;DHT22;21994;48.204;16.516;2022-12-01T14:29:39;4.90;99.90
35894;DHT22;21994;48.204;16.516;2022-12-01T14:34:34;4.80;99.90
35894;DHT22;21994;48.204;16.516;2022-12-01T14:37:36;4.90;99.90
35894;DHT22;21994;48.204;16.516;2022-12-01T14:40:03;4.80;99.90
35894;DHT22;21994;48.204;16.516;2022-12-01T14:42:32;4.80;99.90
35894;DHT22;21994;48.204;16.516;2022-12-01T14:45:37;4.70;99.90
35894;DHT22;21994;48.204;16.516;2022-12-01T14:48:05;4.70;99.90
35894;DHT22;21994;48.204;16.516;2022-12-01T14:50:39;4.70;99.90
35894;DHT22;21994;48.204;16.516;2022-12-01T14:55:52;4.50;99.90
35894;DHT22;21994;48.204;16.516;2022-12-01T14:58:27;4.50;99.90
35894;DHT22;21994;48.204;16.516;2022-12-01T15:03:31;4.50;99.90
35894;DHT22;21994;48.204;16.516;2022-12-01T15:05:59;4.50;99.90
35894;DHT22;21994;48.204;16.516;2022-12-01T15:08:26;4.60;99.90
35894;DHT22;21994;48.204;16.516;2022-12-01T15:10:55;4.50;99.90
35894;DHT22;21994;48.204;16.516;2022-12-01T15:13:23;4.50;99.90
35894;DHT22;21994;48.204;16.516;2022-12-01T15:15:59;4.40;99.90
35894;DHT22;21994;48.204;16.516;2022-12-01T15:18:30;4.40;99.90
35894;DHT22;21994;48.204;16.516;2022-12-01T15:21:02;4.40;99.90
35894;DHT22;21994;48.204;16.516;2022-12-01T15:23:31;4.20;99.90
35894;DHT22;21994;48.204;16.516;2022-12-01T15:25:56;4.30;99.90
35894;DHT22;21994;48.204;16.516;2022-12-01T15:28:30;4.30;99.90
35894;DHT22;21994;48.204;16.516;2022-12-01T15:30:57;4.40;99.90
35894;DHT22;21994;48.204;16.516;2022-12-01T15:33:25;4.30;99.90
35894;DHT22;21994;48.204;16.516;2022-12-01T15:35:53;4.30;99.90
35894;DHT22;21994;48.204;16.516;2022-12-01T15:38:23;4.20;99.90
35894;DHT22;21994;48.204;16.516;2022-12-01T15:40:51;4.30;99.90
35894;DHT22;21994;48.204;16.516;2022-12-01T15:43:18;4.20;99.90
35894;DHT22;21994;48.204;16.516;2022-12-01T15:45:50;4.20;99.90
35894;DHT22;21994;48.204;16.516;2022-12-01T15:48:27;4.30;99.90
35894;DHT22;21994;48.204;16.516;2022-12-01T15:50:59;4.20;99.90
35894;DHT22;21994;48.204;16.516;2022-12-01T15:53:27;4.20;99.90
35894;DHT22;21994;48.204;16.516;2022-12-01T15:55:57;4.10;99.90
35894;DHT22;21994;48.204;16.516;2022-12-01T15:58:24;4.10;99.90
35894;DHT22;21994;48.204;16.516;2022-12-01T16:01:10;4.00;99.90
35894;DHT22;21994;48.204;16.516;2022-12-01T16:03:53;3.90;99.90
35894;DHT22;21994;48.204;16.516;2022-12-01T16:06:21;4.00;99.90
35894;DHT22;21994;48.204;16.516;2022-12-01T16:08:56;3.90;99.90
35894;DHT22;21994;48.204;16.516;2022-12-01T16:11:24;3.90;99.90
35894;DHT22;21994;48.204;16.516;2022-12-01T16:13:57;3.80;99.90
35894;DHT22;21994;48.204;16.516;2022-12-01T16:18:56;3.80;99.90
35894;DHT22;21994;48.204;16.516;2022-12-01T16:21:23;3.80;99.90
35894;DHT22;21994;48.204;16.516;2022-12-01T16:24:03;3.80;99.90
35894;DHT22;21994;48.204;16.516;2022-12-01T16:26:30;3.80;99.90
35894;DHT22;21994;48.204;16.516;2022-12-01T16:28:56;3.80;99.90
35894;DHT22;21994;48.204;16.516;2022-12-01T16:31:24;3.70;99.90
35894;DHT22;21994;48.204;16.516;2022-12-01T16:33:58;3.50;99.90
35894;DHT22;21994;48.204;16.516;2022-12-01T16:36:25;3.60;99.90
35894;DHT22;21994;48.204;16.516;2022-12-01T16:38:51;3.60;99.90
35894;DHT22;21994;48.204;16.516;2022-12-01T16:41:22;3.60;99.90
35894;DHT22;21994;48.204;16.516;2022-12-01T16:43:53;3.50;99.90
35894;DHT22;21994;48.204;16.516;2022-12-01T16:46:19;3.30;99.90
35894;DHT22;21994;48.204;16.516;2022-12-01T16:48:44;3.30;99.90
35894;DHT22;21994;48.204;16.516;2022-12-01T16:51:10;3.30;99.90
35894;DHT22;21994;48.204;16.516;2022-12-01T16:53:38;3.20;99.90
35894;DHT22;21994;48.204;16.516;2022-12-01T16:56:03;3.10;99.90
35894;DHT22;21994;48.204;16.516;2022-12-01T16:58:29;3.10;99.90
35894;DHT22;21994;48.204;16.516;2022-12-01T17:00:55;3.00;99.90
35894;DHT22;21994;48.204;16.516;2022-12-01T17:03:22;3.00;99.90
35894;DHT22;21994;48.204;16.516;2022-12-01T17:05:49;3.00;99.90
35894;DHT22;21994;48.204;16.516;2022-12-01T17:08:16;2.90;99.90
35894;DHT22;21994;48.204;16.516;2022-12-01T17:10:42;2.90;99.90
35894;DHT22;21994;48.204;16.516;2022-12-01T17:13:09;2.80;99.90
35894;DHT22;21994;48.204;16.516;2022-12-01T17:15:38;2.80;99.90
35894;DHT22;21994;48.204;16.516;2022-12-01T17:18:08;2.60;99.90
35894;DHT22;21994;48.204;16.516;2022-12-01T17:20:34;2.70;99.90
35894;DHT22;21994;48.204;16.516;2022-12-01T17:22:59;2.60;99.90
35894;DHT22;21994;48.204;16.516;2022-12-01T17:25:25;2.60;99.90
35894;DHT22;21994;48.204;16.516;2022-12-01T17:27:51;2.60;99.90
35894;DHT22;21994;48.204;16.516;2022-12-01T17:30:17;2.50;99.90
35894;DHT22;21994;48.204;16.516;2022-12-01T17:32:43;2.30;99.90
35894;DHT22;21994;48.204;16.516;2022-12-01T17:35:10;2.40;99.90
35894;DHT22;21994;48.204;16.516;2022-12-01T17:37:37;2.30;99.90
35894;DHT22;21994;48.204;16.516;2022-12-01T17:40:03;2.20;99.90
35894;DHT22;21994;48.204;16.516;2022-12-01T17:42:30;2.00;99.90
35894;DHT22;21994;48.204;16.516;2022-12-01T17:44:57;2.00;99.90
35894;DHT22;21994;48.204;16.516;2022-12-01T17:47:23;2.00;99.90
35894;DHT22;21994;48.204;16.516;2022-12-01T17:49:48;1.90;99.90
35894;DHT22;21994;48.204;16.516;2022-12-01T17:52:14;2.00;99.90
35894;DHT22;21994;48.204;16.516;2022-12-01T17:54:40;2.00;99.90
35894;DHT22;21994;48.204;16.516;2022-12-01T17:57:06;2.10;99.90
35894;DHT22;21994;48.204;16.516;2022-12-01T17:59:32;2.10;99.90
35894;DHT22;21994;48.204;16.516;2022-12-01T18:01:58;1.90;99.90
35894;DHT22;21994;48.204;16.516;2022-12-01T18:04:24;2.00;99.90
35894;DHT22;21994;48.204;16.516;2022-12-01T18:06:49;2.10;99.90
35894;DHT22;21994;48.204;16.516;2022-12-01T18:09:15;2.00;99.90
35894;DHT22;21994;48.204;16.516;2022-12-01T18:11:41;2.00;99.90
35894;DHT22;21994;48.204;16.516;2022-12-01T18:14:07;1.90;99.90
35894;DHT22;21994;48.204;16.516;2022-12-01T18:16:32;2.00;99.90
35894;DHT22;21994;48.204;16.516;2022-12-01T18:18:58;1.80;99.90
35894;DHT22;21994;48.204;16.516;2022-12-01T18:21:25;1.80;99.90
35894;DHT22;21994;48.204;16.516;2022-12-01T18:23:52;1.90;99.90
35894;DHT22;21994;48.204;16.516;2022-12-01T18:26:22;1.70;99.90
35894;DHT22;21994;48.204;16.516;2022-12-01T18:28:52;1.70;99.90
35894;DHT22;21994;48.204;16.516;2022-12-01T18:31:19;1.80;99.90
35894;DHT22;21994;48.204;16.516;2022-12-01T18:33:45;1.80;99.90